Time;durP1;ratioP1;P1;durP2;ratioP2;P2;SDS_P1;SDS_P2;PMS_P1;PMS_P2;Temp;Humidity;BMP_temperature;BMP_pressure;BME280_temperature;BME280_humidity;BME280_pressure;Samples;Min_cycle;Max_cycle;Signal;HPM_P1;HPM_P2
2022/04/30 00:02:11;;;;;;;30.60;21.70;;;8.10;99.90;;;;;;5053234;28;20633;-58
2022/04/30 00:04:39;;;;;;;30.77;20.60;;;8.10;99.90;;;;;;5053382;28;20197;-58
2022/04/30 00:07:06;;;;;;;32.33;22.13;;;8.00;99.90;;;;;;5053350;28;20188;-58
2022/04/30 00:09:32;;;;;;;36.80;24.70;;;8.00;99.90;;;;;;5053547;28;20177;-58
2022/04/30 00:11:59;;;;;;;38.30;25.60;;;8.00;99.90;;;;;;5053058;28;20180;-58
2022/04/30 00:14:26;;;;;;;33.70;24.37;;;8.00;99.90;;;;;;5053056;28;20749;-57
2022/04/30 00:16:52;;;;;;;35.13;25.47;;;8.00;99.90;;;;;;5052974;28;20179;-57
2022/04/30 00:19:22;;;;;;;35.20;25.33;;;8.00;99.90;;;;;;5053175;28;20548;-57
2022/04/30 00:21:51;;;;;;;41.80;25.23;;;7.90;99.90;;;;;;5053127;28;20726;-58
2022/04/30 00:24:17;;;;;;;38.23;25.30;;;7.90;99.90;;;;;;5053193;28;20183;-58
2022/04/30 00:26:43;;;;;;;36.63;26.13;;;7.90;99.90;;;;;;5053130;28;20172;-57
2022/04/30 00:29:10;;;;;;;39.67;25.50;;;7.80;99.90;;;;;;5052445;28;20542;-58
2022/04/30 00:31:36;;;;;;;39.37;26.30;;;7.90;99.90;;;;;;5052967;28;20180;-58
2022/04/30 00:34:03;;;;;;;44.57;26.70;;;7.80;99.90;;;;;;5052766;28;20191;-59
2022/04/30 00:36:29;;;;;;;39.60;29.30;;;7.80;99.90;;;;;;5052944;28;20179;-59
2022/04/30 00:38:55;;;;;;;43.87;30.10;;;7.80;99.90;;;;;;5052658;28;20185;-59
2022/04/30 00:41:23;;;;;;;45.23;29.40;;;7.80;99.90;;;;;;5052972;28;20179;-59
2022/04/30 00:43:53;;;;;;;43.57;27.93;;;7.80;99.90;;;;;;5052501;28;20677;-59
2022/04/30 00:46:21;;;;;;;42.47;29.03;;;7.80;99.90;;;;;;5052764;28;20187;-58
2022/04/30 00:48:47;;;;;;;40.33;28.23;;;7.70;99.90;;;;;;5052756;28;20305;-58
2022/04/30 00:51:19;;;;;;;43.57;29.10;;;7.70;99.90;;;;;;5052435;28;20282;-58
2022/04/30 00:53:50;;;;;;;42.30;27.20;;;7.60;99.90;;;;;;5052247;28;20196;-59
2022/04/30 00:56:21;;;;;;;38.80;25.33;;;7.60;99.90;;;;;;5052403;28;20667;-58
2022/04/30 00:58:49;;;;;;;44.63;25.77;;;7.50;99.90;;;;;;5052947;28;20191;-58
2022/04/30 01:01:15;;;;;;;39.13;27.50;;;7.40;99.90;;;;;;5052323;28;20180;-59
2022/04/30 01:03:41;;;;;;;42.13;27.40;;;7.40;99.90;;;;;;5052330;28;20226;-59
2022/04/30 01:06:09;;;;;;;47.53;29.40;;;7.50;99.90;;;;;;5052213;28;20265;-59
2022/04/30 01:08:36;;;;;;;47.97;32.10;;;7.40;99.90;;;;;;5052317;28;20187;-59
2022/04/30 01:11:04;;;;;;;47.60;29.00;;;7.40;99.90;;;;;;5051930;28;20174;-56
2022/04/30 01:13:34;;;;;;;45.20;28.90;;;7.40;99.90;;;;;;5052348;28;20253;-57
2022/04/30 01:16:02;;;;;;;47.57;30.73;;;7.30;99.90;;;;;;5052002;28;20296;-57
2022/04/30 01:18:29;;;;;;;57.67;31.20;;;7.30;99.90;;;;;;5052262;28;20187;-58
2022/04/30 01:21:01;;;;;;;69.30;32.73;;;7.30;99.90;;;;;;5052023;28;20215;-58
2022/04/30 01:23:27;;;;;;;46.90;30.43;;;7.30;99.90;;;;;;5052000;28;20245;-58
2022/04/30 01:25:54;;;;;;;49.37;30.93;;;7.30;99.90;;;;;;5051881;28;20233;-61
2022/04/30 01:28:21;;;;;;;50.33;31.17;;;7.30;99.90;;;;;;5051935;28;20551;-58
2022/04/30 01:30:47;;;;;;;49.13;31.40;;;7.30;99.90;;;;;;5051813;28;20704;-59
2022/04/30 01:38:40;;;;;;;41.03;25.83;;;7.30;99.90;;;;;;5052005;28;20232;-58
2022/04/30 01:41:06;;;;;;;41.57;25.77;;;7.30;99.90;;;;;;5051644;28;20191;-59
2022/04/30 01:43:35;;;;;;;39.10;24.93;;;7.30;99.90;;;;;;5051769;28;20584;-59
2022/04/30 01:46:03;;;;;;;41.00;25.23;;;7.30;99.90;;;;;;5051500;28;20174;-58
2022/04/30 01:48:30;;;;;;;39.83;26.53;;;7.20;99.90;;;;;;5051473;28;20240;-59
2022/04/30 01:50:56;;;;;;;39.63;25.73;;;7.10;99.90;;;;;;5051673;28;20210;-57
2022/04/30 01:53:22;;;;;;;35.17;24.80;;;7.10;99.90;;;;;;5051722;28;20225;-58
2022/04/30 01:55:49;;;;;;;38.67;25.37;;;7.10;99.90;;;;;;5051691;28;20650;-57
2022/04/30 01:58:14;;;;;;;46.30;26.37;;;7.10;99.90;;;;;;5051188;28;20282;-58
2022/04/30 02:00:41;;;;;;;42.53;25.33;;;7.00;99.90;;;;;;5051458;28;20269;-58
2022/04/30 02:03:09;;;;;;;41.57;24.03;;;6.90;99.90;;;;;;5050857;28;20563;-58
2022/04/30 02:05:37;;;;;;;36.13;24.73;;;6.90;99.90;;;;;;5052123;28;20195;-58
2022/04/30 02:08:12;;;;;;;39.87;26.40;;;6.80;99.90;;;;;;5055544;28;20520;-59
2022/04/30 02:10:40;;;;;;;37.60;24.13;;;6.90;99.90;;;;;;5055553;28;20628;-58
2022/04/30 02:13:08;;;;;;;42.27;26.60;;;6.80;99.90;;;;;;5055339;28;20178;-58
2022/04/30 02:15:35;;;;;;;42.23;24.50;;;6.80;99.90;;;;;;5055324;28;20213;-58
2022/04/30 02:18:03;;;;;;;37.33;25.17;;;6.80;99.90;;;;;;5055217;28;20190;-58
2022/04/30 02:20:33;;;;;;;40.20;24.77;;;6.80;99.90;;;;;;5055529;28;20183;-58
2022/04/30 02:23:04;;;;;;;37.87;24.87;;;6.90;99.90;;;;;;5054862;28;20238;-58
2022/04/30 02:25:31;;;;;;;37.30;24.37;;;6.90;99.90;;;;;;5055348;28;20192;-58
2022/04/30 02:28:05;;;;;;;36.87;25.47;;;6.90;99.90;;;;;;5055165;28;20182;-62
2022/04/30 02:30:35;;;;;;;42.07;26.00;;;7.00;99.90;;;;;;5055360;28;20190;-58
2022/04/30 02:33:12;;;;;;;37.37;25.80;;;7.10;99.90;;;;;;5055125;28;20183;-59
2022/04/30 02:35:45;;;;;;;40.13;24.77;;;7.00;99.90;;;;;;5055128;28;20229;-58
2022/04/30 02:38:12;;;;;;;47.63;24.23;;;7.00;99.90;;;;;;5053697;28;20185;-57
2022/04/30 02:40:40;;;;;;;37.60;24.43;;;7.00;99.90;;;;;;5055468;28;20182;-59
2022/04/30 02:43:07;;;;;;;37.20;24.60;;;7.00;99.90;;;;;;5055190;28;20177;-58
2022/04/30 02:45:35;;;;;;;63.93;26.20;;;6.90;99.90;;;;;;5055129;28;20327;-58
2022/04/30 02:48:02;;;;;;;65.00;26.13;;;7.00;99.90;;;;;;5053477;28;20239;-58
2022/04/30 02:50:29;;;;;;;35.57;23.43;;;7.10;99.90;;;;;;5054804;28;20215;-58
2022/04/30 02:52:55;;;;;;;34.90;20.80;;;7.10;99.90;;;;;;5055327;28;20211;-58
2022/04/30 02:55:22;;;;;;;41.90;21.80;;;7.10;99.90;;;;;;5054385;28;20646;-59
2022/04/30 03:00:43;;;;;;;34.33;19.73;;;7.20;99.90;;;;;;5055021;28;20312;-59
2022/04/30 03:03:10;;;;;;;39.40;19.80;;;7.20;99.90;;;;;;5055417;28;20182;-57
2022/04/30 03:05:40;;;;;;;34.70;19.70;;;7.20;99.90;;;;;;5055095;28;20427;-58
2022/04/30 03:08:15;;;;;;;34.10;19.13;;;7.20;99.90;;;;;;5054857;28;20537;-58
2022/04/30 03:10:44;;;;;;;29.17;18.80;;;7.20;99.90;;;;;;5054507;28;20261;-58
2022/04/30 03:13:13;;;;;;;42.77;19.83;;;7.20;99.90;;;;;;5054347;28;20185;-58
2022/04/30 03:15:41;;;;;;;47.73;20.47;;;7.20;99.90;;;;;;5054311;28;20301;-59
2022/04/30 03:23:37;;;;;;;40.93;19.97;;;7.10;99.90;;;;;;5054380;28;20190;-59
2022/04/30 03:26:10;;;;;;;46.70;20.67;;;7.10;99.90;;;;;;5053836;28;20647;-59
2022/04/30 03:28:40;;;;;;;27.17;16.93;;;7.20;99.90;;;;;;5054061;28;20187;-59
2022/04/30 03:31:07;;;;;;;34.20;19.43;;;7.20;99.90;;;;;;5053750;28;20265;-58
2022/04/30 03:33:33;;;;;;;35.77;19.67;;;7.20;99.90;;;;;;5054056;28;20207;-58
2022/04/30 03:35:59;;;;;;;34.53;19.37;;;7.30;99.90;;;;;;5053703;28;20686;-58
2022/04/30 03:38:25;;;;;;;34.80;19.20;;;7.30;99.90;;;;;;5053755;28;20212;-58
2022/04/30 03:40:51;;;;;;;48.30;19.83;;;7.40;99.90;;;;;;5053607;28;20205;-61
2022/04/30 03:43:18;;;;;;;42.20;19.20;;;7.50;99.90;;;;;;5053580;28;20630;-58
2022/04/30 03:45:45;;;;;;;30.80;17.30;;;7.50;99.90;;;;;;5053628;28;20528;-57
2022/04/30 03:48:12;;;;;;;30.63;18.33;;;7.50;99.90;;;;;;5053609;28;20191;-58
2022/04/30 03:50:38;;;;;;;37.97;19.63;;;7.60;99.90;;;;;;5053686;28;20732;-58
2022/04/30 03:53:04;;;;;;;31.47;20.07;;;7.60;99.90;;;;;;5053440;28;20259;-58
2022/04/30 03:55:30;;;;;;;40.20;20.37;;;7.60;99.90;;;;;;5053490;28;20219;-58
2022/04/30 03:57:56;;;;;;;35.63;18.77;;;7.70;99.90;;;;;;5053344;28;20669;-57
2022/04/30 04:00:23;;;;;;;31.87;18.47;;;7.70;99.90;;;;;;5053287;28;20692;-59
2022/04/30 04:02:50;;;;;;;31.43;17.73;;;7.70;99.90;;;;;;5053615;28;20188;-58
2022/04/30 04:05:17;;;;;;;29.90;17.23;;;7.80;99.90;;;;;;5053543;28;20192;-58
2022/04/30 04:07:44;;;;;;;34.40;17.97;;;7.80;99.90;;;;;;5053535;28;20647;-59
2022/04/30 04:10:11;;;;;;;45.50;17.40;;;7.90;99.90;;;;;;5052832;28;20517;-58
2022/04/30 04:12:40;;;;;;;32.40;17.40;;;8.00;99.90;;;;;;5053428;28;20186;-57
2022/04/30 04:17:52;;;;;;;33.47;16.13;;;8.20;99.90;;;;;;5053577;28;20665;-59
2022/04/30 04:20:19;;;;;;;29.07;15.47;;;8.20;99.90;;;;;;5052969;28;20182;-60
2022/04/30 04:22:46;;;;;;;30.07;16.30;;;8.20;99.90;;;;;;5052948;28;20247;-58
2022/04/30 04:27:58;;;;;;;36.57;15.63;;;8.30;99.90;;;;;;5052531;28;20183;-57
2022/04/30 04:30:29;;;;;;;25.83;13.67;;;8.50;99.90;;;;;;5051773;28;20189;-58
2022/04/30 04:32:56;;;;;;;18.13;12.87;;;8.60;99.90;;;;;;5052761;28;20182;-58
2022/04/30 04:35:23;;;;;;;19.23;12.67;;;8.80;99.90;;;;;;5052161;28;20371;-59
2022/04/30 04:37:49;;;;;;;22.30;13.23;;;8.90;99.90;;;;;;5052963;28;20255;-59
2022/04/30 04:40:16;;;;;;;41.10;17.67;;;9.00;99.90;;;;;;5052539;28;20637;-58
2022/04/30 04:42:43;;;;;;;17.57;11.97;;;9.10;99.90;;;;;;5052519;28;20182;-59
2022/04/30 04:45:10;;;;;;;15.67;11.13;;;9.20;99.90;;;;;;5052110;28;20190;-59
2022/04/30 04:47:39;;;;;;;24.23;12.07;;;9.20;99.90;;;;;;5052219;28;20175;-58
2022/04/30 04:50:12;;;;;;;20.40;13.27;;;9.30;99.90;;;;;;5052098;28;20190;-58
2022/04/30 04:52:38;;;;;;;22.93;13.77;;;9.30;99.90;;;;;;5052373;28;20175;-58
2022/04/30 04:55:05;;;;;;;15.77;10.43;;;9.40;99.90;;;;;;5052114;28;20363;-59
2022/04/30 04:57:31;;;;;;;17.57;10.70;;;9.40;99.90;;;;;;5050852;28;20189;-58
2022/04/30 04:59:57;;;;;;;16.17;10.37;;;9.40;99.90;;;;;;5052088;28;20208;-59
2022/04/30 05:02:22;;;;;;;14.70;9.53;;;9.50;99.90;;;;;;5051724;28;20192;-58
2022/04/30 05:04:48;;;;;;;15.10;9.20;;;9.50;99.90;;;;;;5052231;28;20636;-58
2022/04/30 05:07:14;;;;;;;23.63;10.97;;;9.50;99.90;;;;;;5051781;28;20543;-59
2022/04/30 05:09:40;;;;;;;17.63;9.93;;;9.60;99.90;;;;;;5052190;28;20215;-58
2022/04/30 05:12:07;;;;;;;15.00;9.43;;;9.60;99.90;;;;;;5051770;28;20210;-59
2022/04/30 05:14:33;;;;;;;17.47;8.80;;;9.70;99.90;;;;;;5051864;28;20222;-59
2022/04/30 05:17:04;;;;;;;13.43;7.90;;;9.70;99.90;;;;;;5051708;28;20182;-58
2022/04/30 05:19:30;;;;;;;12.90;8.50;;;9.80;99.90;;;;;;5051988;28;20279;-59
2022/04/30 05:21:56;;;;;;;21.00;10.67;;;9.90;99.90;;;;;;5051195;28;20235;-58
2022/04/30 05:24:21;;;;;;;12.50;8.13;;;10.10;99.90;;;;;;5051471;28;20271;-58
2022/04/30 05:26:47;;;;;;;15.97;8.40;;;10.10;99.90;;;;;;5051600;28;20258;-59
2022/04/30 05:29:15;;;;;;;12.53;7.97;;;10.10;99.90;;;;;;5051119;28;20274;-57
2022/04/30 05:31:41;;;;;;;18.60;9.03;;;10.10;99.90;;;;;;5051361;28;20202;-61
2022/04/30 05:34:08;;;;;;;19.23;8.90;;;10.10;99.90;;;;;;5050087;28;20186;-58
2022/04/30 05:36:33;;;;;;;33.80;9.17;;;10.30;99.90;;;;;;5049437;28;20536;-57
2022/04/30 05:38:59;;;;;;;20.43;8.53;;;10.40;99.90;;;;;;5051297;28;20185;-58
2022/04/30 05:41:26;;;;;;;21.40;9.43;;;10.60;99.90;;;;;;5050795;28;20177;-58
2022/04/30 05:43:52;;;;;;;20.40;9.17;;;10.80;99.90;;;;;;5050831;28;20666;-58
2022/04/30 05:46:18;;;;;;;18.47;10.33;;;10.90;99.90;;;;;;5049930;28;20297;-59
2022/04/30 05:48:44;;;;;;;22.37;10.17;;;10.90;99.90;;;;;;5051579;28;20258;-58
2022/04/30 05:51:09;;;;;;;16.67;8.97;;;11.00;99.90;;;;;;5050602;28;20236;-59
2022/04/30 05:53:35;;;;;;;11.80;8.07;;;11.10;99.90;;;;;;5051442;28;20274;-58
2022/04/30 05:56:01;;;;;;;17.07;8.87;;;11.10;99.90;;;;;;5051319;28;20206;-58
2022/04/30 05:58:27;;;;;;;14.50;8.03;;;11.20;99.90;;;;;;5051115;28;20501;-59
2022/04/30 06:00:53;;;;;;;15.23;7.93;;;11.20;99.90;;;;;;5051653;28;20206;-58
2022/04/30 06:03:18;;;;;;;35.23;11.40;;;11.40;99.90;;;;;;5050778;28;20190;-58
2022/04/30 06:05:44;;;;;;;20.03;10.20;;;11.70;99.90;;;;;;5050627;28;20190;-58
2022/04/30 06:08:11;;;;;;;16.77;8.50;;;12.00;99.90;;;;;;5050882;28;20184;-58
2022/04/30 06:10:37;;;;;;;19.90;9.47;;;12.10;99.90;;;;;;5050678;28;20198;-60
2022/04/30 06:13:03;;;;;;;19.23;10.70;;;12.00;99.90;;;;;;5050042;28;20697;-59
2022/04/30 06:15:28;;;;;;;16.77;9.20;;;12.10;99.90;;;;;;5049174;28;20224;-57
2022/04/30 06:17:54;;;;;;;19.37;9.63;;;12.10;99.90;;;;;;5050756;28;20269;-56
2022/04/30 06:20:20;;;;;;;16.07;8.87;;;12.10;99.90;;;;;;5050678;28;20626;-58
2022/04/30 06:22:46;;;;;;;19.10;9.27;;;12.20;99.90;;;;;;5050393;28;20249;-58
2022/04/30 06:25:12;;;;;;;16.07;9.13;;;12.40;99.90;;;;;;5050567;28;20192;-58
2022/04/30 06:27:39;;;;;;;20.60;9.33;;;12.50;99.90;;;;;;5050941;28;20186;-60
2022/04/30 06:30:06;;;;;;;25.27;11.23;;;12.60;99.90;;;;;;5051033;28;20187;-58
2022/04/30 06:32:33;;;;;;;20.13;10.53;;;12.60;99.90;;;;;;5051021;28;20185;-59
2022/04/30 06:34:59;;;;;;;30.43;11.63;;;12.70;99.90;;;;;;5050593;28;20655;-57
2022/04/30 06:37:25;;;;;;;16.33;8.87;;;12.70;99.90;;;;;;5050611;28;20227;-59
2022/04/30 06:39:51;;;;;;;23.13;10.57;;;12.60;99.90;;;;;;5051142;28;20200;-59
2022/04/30 06:42:17;;;;;;;21.80;10.40;;;12.70;99.90;;;;;;5050368;28;20182;-59
2022/04/30 06:44:43;;;;;;;20.93;10.07;;;12.90;99.90;;;;;;5049632;28;20554;-60
2022/04/30 06:47:09;;;;;;;19.10;9.60;;;12.90;99.90;;;;;;5050444;28;20197;-58
2022/04/30 06:49:35;;;;;;;18.23;9.70;;;12.90;99.90;;;;;;5050725;28;20239;-58
2022/04/30 06:52:01;;;;;;;15.33;8.00;;;12.90;99.90;;;;;;5051794;28;20194;-58
2022/04/30 06:57:11;;;;;;;16.63;8.93;;;12.90;99.90;;;;;;5054012;28;20209;-58
2022/04/30 06:59:41;;;;;;;25.63;9.43;;;12.80;99.90;;;;;;5054735;28;20672;-58
2022/04/30 07:02:27;;;;;;;27.40;10.13;;;12.80;99.90;;;;;;5054125;28;20191;-60
2022/04/30 07:04:54;;;;;;;18.40;8.87;;;12.90;99.90;;;;;;5054136;28;20563;-59
2022/04/30 07:07:21;;;;;;;12.80;7.93;;;12.70;99.90;;;;;;5053425;28;20190;-58
2022/04/30 07:09:47;;;;;;;12.33;7.20;;;12.70;99.90;;;;;;5054350;28;20186;-58
2022/04/30 07:12:14;;;;;;;14.27;7.53;;;12.60;99.90;;;;;;5052741;28;20515;-58
2022/04/30 07:14:41;;;;;;;12.63;7.83;;;12.60;99.90;;;;;;5053679;28;20198;-58
2022/04/30 07:17:13;;;;;;;10.77;7.73;;;12.60;99.90;;;;;;5053397;28;20609;-58
2022/04/30 07:19:39;;;;;;;16.77;9.00;;;12.50;99.90;;;;;;5054162;28;20653;-57
2022/04/30 07:22:07;;;;;;;14.77;7.37;;;12.50;99.90;;;;;;5053574;28;20238;-58
2022/04/30 07:24:34;;;;;;;14.47;8.30;;;12.60;99.90;;;;;;5053795;28;20656;-59
2022/04/30 07:27:00;;;;;;;13.00;7.30;;;12.70;99.90;;;;;;5053940;28;20652;-58
2022/04/30 07:29:26;;;;;;;14.40;7.40;;;12.80;99.90;;;;;;5053701;28;20545;-58
2022/04/30 07:31:53;;;;;;;14.37;8.30;;;12.90;99.90;;;;;;5053767;28;20186;-59
2022/04/30 07:34:19;;;;;;;9.60;5.87;;;12.90;99.90;;;;;;5053239;28;20182;-59
2022/04/30 07:36:44;;;;;;;14.13;6.10;;;13.00;99.90;;;;;;5053497;28;20197;-59
2022/04/30 07:39:11;;;;;;;9.53;5.50;;;13.20;99.90;;;;;;5053409;28;20272;-59
2022/04/30 07:41:37;;;;;;;13.17;6.37;;;13.40;99.90;;;;;;5053639;28;20193;-61
2022/04/30 07:44:02;;;;;;;13.60;5.60;;;13.40;99.90;;;;;;5053454;28;20170;-60
2022/04/30 07:46:28;;;;;;;11.23;5.30;;;13.50;99.90;;;;;;5053355;28;20533;-58
2022/04/30 07:48:54;;;;;;;9.57;5.57;;;13.60;99.90;;;;;;5053335;28;20293;-59
2022/04/30 07:51:33;;;;;;;9.30;5.17;;;13.80;99.90;;;;;;5053330;28;20191;-59
2022/04/30 07:54:00;;;;;;;9.87;5.00;;;13.80;99.90;;;;;;5053028;28;20718;-58
2022/04/30 07:56:26;;;;;;;12.87;6.23;;;13.80;99.90;;;;;;5052896;28;20251;-60
2022/04/30 07:58:52;;;;;;;10.00;5.70;;;13.80;99.90;;;;;;5052868;28;20278;-59
2022/04/30 08:01:18;;;;;;;19.23;7.07;;;14.00;99.90;;;;;;5051613;28;20178;-57
2022/04/30 08:03:44;;;;;;;21.67;8.93;;;14.20;99.90;;;;;;5052314;28;20498;-59
2022/04/30 08:06:09;;;;;;;21.97;9.67;;;14.50;99.90;;;;;;5034867;28;20190;-60
2022/04/30 08:08:35;;;;;;;8.27;5.87;;;14.60;99.90;;;;;;5053013;28;20183;-60
2022/04/30 08:11:01;;;;;;;18.27;6.83;;;14.80;99.90;;;;;;5053061;28;20194;-61
2022/04/30 08:13:27;;;;;;;20.33;10.63;;;14.90;99.90;;;;;;5052842;28;20178;-59
2022/04/30 08:15:52;;;;;;;11.00;6.40;;;15.00;99.90;;;;;;5051639;28;20202;-59
2022/04/30 08:18:19;;;;;;;12.20;6.97;;;15.20;99.90;;;;;;5053000;28;20186;-58
2022/04/30 08:20:46;;;;;;;10.93;7.27;;;15.60;99.90;;;;;;5052537;28;20178;-57
2022/04/30 08:23:13;;;;;;;19.10;7.00;;;16.00;99.20;;;;;;5051219;28;20191;-59
2022/04/30 08:25:39;;;;;;;24.00;10.47;;;16.10;98.90;;;;;;5052342;28;20253;-58
2022/04/30 08:28:06;;;;;;;45.37;12.67;;;16.30;98.70;;;;;;5052054;28;20186;-59
2022/04/30 08:30:32;;;;;;;15.27;6.63;;;16.30;97.70;;;;;;5052334;28;20186;-59
2022/04/30 08:32:59;;;;;;;29.40;10.33;;;16.60;98.00;;;;;;5052407;28;20193;-59
2022/04/30 08:35:25;;;;;;;17.27;6.80;;;17.30;97.30;;;;;;5052241;28;20282;-60
2022/04/30 08:37:51;;;;;;;15.47;7.20;;;17.70;95.80;;;;;;5052716;28;20631;-59
2022/04/30 08:40:17;;;;;;;12.27;6.10;;;17.80;94.00;;;;;;5052571;28;20213;-58
2022/04/30 08:42:43;;;;;;;31.90;16.70;;;17.70;91.90;;;;;;5051982;28;20178;-58
2022/04/30 08:45:10;;;;;;;18.03;7.80;;;17.50;91.80;;;;;;5051741;28;20193;-61
2022/04/30 08:47:46;;;;;;;16.33;7.53;;;17.30;95.60;;;;;;5051767;28;20178;-58
2022/04/30 08:50:14;;;;;;;11.43;6.97;;;16.90;97.30;;;;;;5051629;28;20193;-57
2022/04/30 08:52:40;;;;;;;17.67;8.97;;;16.60;97.70;;;;;;5052187;28;20197;-58
2022/04/30 08:55:08;;;;;;;13.07;8.13;;;16.00;99.90;;;;;;5051415;28;20616;-58
2022/04/30 08:57:34;;;;;;;15.53;8.93;;;15.80;99.90;;;;;;5052086;28;20699;-59
2022/04/30 09:00:01;;;;;;;16.60;9.10;;;15.70;99.90;;;;;;5051609;28;20269;-59
2022/04/30 09:02:27;;;;;;;23.00;9.73;;;15.80;99.90;;;;;;5052210;28;20409;-58
2022/04/30 09:04:54;;;;;;;17.57;9.27;;;16.00;99.90;;;;;;5052027;28;20189;-60
2022/04/30 09:07:23;;;;;;;10.93;7.50;;;16.10;99.90;;;;;;5051329;28;20206;-59
2022/04/30 09:09:57;;;;;;;12.97;6.77;;;16.10;99.90;;;;;;5051510;28;20710;-59
2022/04/30 09:12:23;;;;;;;13.80;5.33;;;16.20;99.20;;;;;;5051340;28;20558;-59
2022/04/30 09:14:49;;;;;;;16.03;5.90;;;16.10;97.20;;;;;;5051291;28;20217;-59
2022/04/30 09:17:16;;;;;;;12.23;5.43;;;16.20;97.00;;;;;;5051563;28;20189;-59
2022/04/30 09:19:51;;;;;;;15.03;5.57;;;16.20;95.70;;;;;;5051063;28;20186;-60
2022/04/30 09:22:29;;;;;;;17.30;5.33;;;16.30;95.40;;;;;;5051496;28;20424;-58
2022/04/30 09:24:56;;;;;;;21.20;6.37;;;16.20;93.60;;;;;;5050653;28;20198;-59
2022/04/30 09:27:23;;;;;;;103.13;11.20;;;16.30;93.50;;;;;;5049148;28;20182;-58
2022/04/30 09:29:49;;;;;;;12.07;5.27;;;16.20;94.90;;;;;;5049585;28;20182;-57
2022/04/30 09:32:22;;;;;;;20.27;5.80;;;16.40;93.90;;;;;;5050929;28;20182;-59
2022/04/30 09:37:42;;;;;;;16.93;5.63;;;16.80;91.70;;;;;;5051101;28;20300;-58
2022/04/30 09:40:14;;;;;;;37.90;7.90;;;16.80;91.20;;;;;;5050954;28;20201;-57
2022/04/30 09:42:40;;;;;;;53.93;7.87;;;16.80;90.00;;;;;;5050706;28;20623;-59
2022/04/30 09:45:07;;;;;;;52.13;8.33;;;16.90;87.00;;;;;;5050876;28;20277;-59
2022/04/30 09:47:36;;;;;;;22.37;6.80;;;17.10;88.80;;;;;;5050970;28;20207;-58
2022/04/30 09:55:54;;;;;;;24.20;5.57;;;16.80;86.90;;;;;;4969639;28;20266;-58
2022/04/30 09:58:26;;;;;;;11.10;5.23;;;16.60;88.70;;;;;;5036256;28;20255;-61
2022/04/30 10:00:58;;;;;;;14.63;4.97;;;16.50;88.70;;;;;;5050765;28;20185;-59
2022/04/30 10:03:26;;;;;;;23.27;5.60;;;16.60;90.60;;;;;;5050289;28;20174;-59
2022/04/30 10:06:00;;;;;;;14.33;4.90;;;16.70;87.90;;;;;;5050362;28;20186;-58
2022/04/30 10:08:37;;;;;;;12.90;5.40;;;16.80;86.00;;;;;;5050358;28;20224;-61
2022/04/30 10:11:21;;;;;;;24.73;6.03;;;17.00;82.60;;;;;;5049405;28;20210;-57
2022/04/30 10:14:01;;;;;;;8.17;5.10;;;17.20;79.30;;;;;;5050614;28;20263;-58
2022/04/30 10:16:28;;;;;;;13.17;5.27;;;17.20;78.20;;;;;;5049202;28;20210;-58
2022/04/30 10:19:16;;;;;;;14.53;6.40;;;17.20;83.20;;;;;;5050255;28;20178;-58
2022/04/30 10:21:42;;;;;;;10.67;5.23;;;17.30;82.00;;;;;;5050314;28;20592;-57
2022/04/30 10:24:12;;;;;;;16.60;5.80;;;17.60;76.30;;;;;;5050636;28;20190;-61
2022/04/30 10:26:57;;;;;;;15.17;5.13;;;17.70;77.30;;;;;;5034370;28;20281;-60
2022/04/30 10:29:23;;;;;;;12.47;4.97;;;18.00;75.00;;;;;;5054232;28;20224;-59
2022/04/30 10:31:49;;;;;;;15.40;5.45;;;18.30;73.50;;;;;;5054851;28;20182;-60
2022/04/30 10:34:15;;;;;;;8.90;5.22;;;18.70;71.20;;;;;;5054248;28;20187;-59
2022/04/30 10:36:41;;;;;;;12.02;4.95;;;18.80;69.90;;;;;;5054537;28;20194;-61
2022/04/30 10:39:17;;;;;;;9.38;4.50;;;18.60;70.40;;;;;;5053913;28;20538;-60
2022/04/30 10:41:45;;;;;;;6.90;4.35;;;18.70;71.90;;;;;;5053073;28;20293;-59
2022/04/30 10:44:13;;;;;;;10.48;4.00;;;18.50;71.10;;;;;;5053969;28;20583;-58
2022/04/30 10:46:45;;;;;;;14.02;6.70;;;19.20;69.50;;;;;;5052457;28;20205;-58
2022/04/30 10:49:11;;;;;;;15.70;5.35;;;19.60;66.10;;;;;;5054100;28;20182;-60
2022/04/30 10:51:40;;;;;;;15.15;5.45;;;20.10;64.10;;;;;;5054262;28;20190;-58
2022/04/30 10:54:18;;;;;;;8.23;5.65;;;20.40;65.80;;;;;;5052985;28;20247;-59
2022/04/30 10:56:46;;;;;;;13.93;5.47;;;20.70;65.00;;;;;;5054448;28;20571;-60
2022/04/30 10:59:21;;;;;;;15.05;6.15;;;20.90;63.50;;;;;;5053930;28;20194;-59
2022/04/30 11:01:51;;;;;;;15.60;5.18;;;20.70;63.80;;;;;;5054681;28;20273;-60
2022/04/30 11:04:17;;;;;;;11.40;5.72;;;20.20;62.60;;;;;;5053869;28;20265;-59
2022/04/30 11:06:45;;;;;;;12.18;5.28;;;19.70;63.10;;;;;;5054395;28;20182;-57
2022/04/30 11:09:11;;;;;;;12.38;5.00;;;19.50;65.90;;;;;;5054140;28;20189;-60
2022/04/30 11:11:37;;;;;;;12.88;4.97;;;19.10;68.60;;;;;;5054601;28;20551;-60
2022/04/30 11:14:07;;;;;;;13.52;5.43;;;19.00;70.20;;;;;;5054462;28;20188;-59
2022/04/30 11:16:46;;;;;;;17.20;6.15;;;18.70;71.50;;;;;;5053887;28;20217;-59
2022/04/30 11:19:15;;;;;;;8.52;5.22;;;18.40;76.00;;;;;;5054146;28;20264;-59
2022/04/30 11:21:41;;;;;;;9.38;5.53;;;18.40;79.30;;;;;;5054090;28;20226;-58
2022/04/30 11:24:08;;;;;;;18.13;6.93;;;18.10;82.20;;;;;;5054247;28;20189;-59
2022/04/30 11:26:43;;;;;;;9.60;5.53;;;18.00;90.50;;;;;;5052439;28;20663;-59
2022/04/30 11:29:10;;;;;;;16.03;6.63;;;17.80;87.00;;;;;;5053604;28;20208;-57
2022/04/30 11:31:36;;;;;;;8.63;6.07;;;17.70;90.60;;;;;;5053905;28;20178;-58
2022/04/30 11:34:13;;;;;;;11.23;5.07;;;17.80;91.30;;;;;;5053964;28;20270;-58
2022/04/30 11:36:41;;;;;;;19.10;5.97;;;18.10;85.60;;;;;;5053628;28;20399;-60
2022/04/30 11:39:09;;;;;;;15.18;5.32;;;18.70;88.90;;;;;;5053413;28;20581;-58
2022/04/30 11:41:42;;;;;;;13.85;5.55;;;19.50;76.20;;;;;;5053304;28;20238;-59
2022/04/30 11:44:15;;;;;;;18.00;6.30;;;20.20;76.50;;;;;;5053304;28;20190;-58
2022/04/30 11:46:43;;;;;;;13.23;5.20;;;20.40;71.00;;;;;;5053744;28;20261;-58
2022/04/30 11:49:10;;;;;;;8.32;4.57;;;21.10;69.10;;;;;;5053315;28;20185;-58
2022/04/30 11:51:37;;;;;;;10.40;4.43;;;22.90;63.00;;;;;;5053770;28;20543;-57
2022/04/30 11:54:06;;;;;;;19.73;4.90;;;24.90;54.40;;;;;;5053773;28;20175;-60
2022/04/30 11:56:33;;;;;;;16.20;4.28;;;25.80;50.10;;;;;;5052416;28;20210;-57
2022/04/30 11:58:58;;;;;;;8.93;4.40;;;27.10;50.90;;;;;;5052483;28;20182;-57
2022/04/30 12:01:30;;;;;;;12.00;4.93;;;28.50;46.30;;;;;;5053137;28;20701;-59
2022/04/30 12:04:11;;;;;;;11.60;4.72;;;29.30;43.60;;;;;;5053273;28;20183;-58
2022/04/30 12:06:40;;;;;;;11.02;4.53;;;29.70;41.90;;;;;;5053444;28;20186;-57
2022/04/30 12:09:20;;;;;;;7.68;4.45;;;28.10;41.90;;;;;;5053454;28;20182;-59
2022/04/30 12:11:51;;;;;;;5.18;3.90;;;27.30;43.30;;;;;;5053581;28;20178;-59
2022/04/30 12:14:18;;;;;;;5.70;3.83;;;27.00;42.90;;;;;;5052905;28;20232;-59
2022/04/30 12:16:45;;;;;;;11.27;3.90;;;26.80;43.30;;;;;;5053183;28;20308;-58
2022/04/30 12:25:12;;;;;;;11.30;4.22;;;24.30;46.40;;;;;;5053338;28;20273;-58
2022/04/30 12:27:40;;;;;;;4.68;2.90;;;25.10;45.00;;;;;;5052865;28;20190;-58
2022/04/30 12:30:09;;;;;;;9.50;3.67;;;25.20;42.70;;;;;;5052667;28;20559;-60
2022/04/30 12:32:47;;;;;;;5.05;3.10;;;26.80;42.60;;;;;;5052822;28;20674;-59
2022/04/30 12:35:15;;;;;;;4.10;2.95;;;27.70;40.50;;;;;;5052452;28;20255;-63
2022/04/30 12:37:41;;;;;;;10.13;2.78;;;29.30;38.30;;;;;;5052897;28;20189;-60
2022/04/30 12:40:08;;;;;;;6.30;2.92;;;30.60;35.20;;;;;;5052621;28;20178;-58
2022/04/30 12:42:34;;;;;;;3.70;2.55;;;30.10;36.00;;;;;;5051048;28;20239;-58
2022/04/30 12:45:00;;;;;;;9.73;3.08;;;31.00;34.60;;;;;;5052389;28;20639;-58
2022/04/30 12:47:26;;;;;;;4.30;3.30;;;31.40;34.50;;;;;;5052284;28;20664;-57
2022/04/30 12:49:51;;;;;;;8.13;3.50;;;32.30;34.30;;;;;;5051909;28;20239;-58
2022/04/30 12:52:17;;;;;;;6.80;3.45;;;32.30;33.00;;;;;;5052377;28;20297;-59
2022/04/30 12:54:43;;;;;;;8.95;4.15;;;32.80;33.60;;;;;;5052318;28;20575;-60
2022/04/30 12:57:11;;;;;;;10.82;5.20;;;33.40;32.70;;;;;;5052116;28;20713;-57
2022/04/30 12:59:37;;;;;;;13.60;6.35;;;33.10;31.60;;;;;;5052188;28;20213;-59
2022/04/30 13:02:04;;;;;;;10.00;3.65;;;31.80;32.20;;;;;;5051639;28;20701;-58
2022/04/30 13:04:30;;;;;;;4.82;3.38;;;29.50;34.50;;;;;;5051820;28;20213;-59
2022/04/30 13:06:56;;;;;;;17.42;4.13;;;28.00;36.50;;;;;;5052091;28;20636;-59
2022/04/30 13:14:52;;;;;;;13.25;4.78;;;24.20;42.20;;;;;;5052154;28;20212;-58
2022/04/30 13:17:17;;;;;;;7.10;3.10;;;23.40;43.00;;;;;;5051728;28;20255;-60
2022/04/30 13:19:44;;;;;;;5.85;3.60;;;23.20;42.90;;;;;;5052400;28;20183;-59
2022/04/30 13:22:10;;;;;;;5.90;3.55;;;22.80;43.40;;;;;;5051691;28;20580;-58
2022/04/30 13:24:36;;;;;;;7.78;3.63;;;22.90;44.50;;;;;;5052032;28;20321;-59